Time;durP1;ratioP1;P1;durP2;ratioP2;P2;SDS_P1;SDS_P2;PMS_P1;PMS_P2;Temp;Humidity;BMP_temperature;BMP_pressure;BME280_temperature;BME280_humidity;BME280_pressure;Samples;Min_cycle;Max_cycle;Signal;HPM_P1;HPM_P2
2021/01/12 00:02:38;;;;;;;48.23;26.15;;;;;;;3.14;62.21;101522.58;1713822;83;21204;-55
2021/01/12 00:05:43;;;;;;;43.00;24.95;;;;;;;3.16;62.01;101530.08;1713174;82;21236;-55
2021/01/12 00:08:47;;;;;;;40.45;23.55;;;;;;;3.17;61.94;101529.13;1710625;84;21220;-55
2021/01/12 00:11:53;;;;;;;38.73;22.73;;;;;;;3.17;61.90;101530.02;1710568;84;21260;-55
2021/01/12 00:14:58;;;;;;;32.42;18.45;;;;;;;3.19;61.65;101529.91;1710684;84;21228;-55
2021/01/12 00:18:03;;;;;;;32.93;18.15;;;;;;;3.20;61.50;101529.80;1710830;84;21201;-55
2021/01/12 00:21:08;;;;;;;48.30;22.77;;;;;;;3.20;61.34;101535.69;1710495;84;21365;-55
2021/01/12 00:24:14;;;;;;;49.50;23.65;;;;;;;3.20;61.38;101536.57;1700403;82;21241;-55
2021/01/12 00:27:19;;;;;;;42.65;21.68;;;;;;;3.16;61.52;101535.02;1700318;84;21249;-55
2021/01/12 00:30:26;;;;;;;29.00;15.98;;;;;;;3.14;62.03;101535.59;1707705;84;21266;-55
2021/01/12 00:33:31;;;;;;;19.57;12.30;;;;;;;3.14;62.32;101531.53;1707750;83;22088;-55
2021/01/12 00:36:36;;;;;;;27.17;15.55;;;;;;;3.14;62.13;101528.83;1708004;84;21286;-55
2021/01/12 00:39:41;;;;;;;22.73;14.13;;;;;;;3.13;62.06;101523.52;1708043;84;21770;-55
2021/01/12 00:42:47;;;;;;;24.05;13.98;;;;;;;3.05;62.08;101525.38;1707920;84;21207;-54
2021/01/12 00:45:53;;;;;;;25.80;15.30;;;;;;;2.97;62.18;101521.84;1708141;84;21238;-55
2021/01/12 00:48:58;;;;;;;19.05;11.97;;;;;;;2.93;62.08;101520.79;1707994;84;21380;-54
2021/01/12 00:52:03;;;;;;;16.45;10.70;;;;;;;2.89;61.87;101513.83;1708270;83;21246;-55
2021/01/12 00:55:09;;;;;;;17.25;11.05;;;;;;;2.85;61.74;101506.89;1716686;83;21248;-55
2021/01/12 00:58:15;;;;;;;17.25;9.83;;;;;;;2.85;61.70;101508.25;1716586;83;21389;-55
2021/01/12 01:01:20;;;;;;;23.85;13.68;;;;;;;2.87;61.70;101509.88;1716247;83;21474;-54
2021/01/12 01:04:26;;;;;;;21.33;12.88;;;;;;;2.86;62.06;101509.97;1716344;83;21392;-54
2021/01/12 01:07:31;;;;;;;24.52;14.73;;;;;;;2.92;62.20;101505.51;1717057;82;21374;-55
2021/01/12 01:10:36;;;;;;;23.57;14.30;;;;;;;2.97;62.15;101504.26;1686247;84;21240;-54
2021/01/12 01:13:42;;;;;;;26.25;15.08;;;;;;;3.02;62.25;101504.83;1716907;83;21227;-55
2021/01/12 01:16:48;;;;;;;21.62;12.68;;;;;;;3.05;62.25;101507.80;1717354;83;21382;-55
2021/01/12 01:19:54;;;;;;;20.45;12.65;;;;;;;3.06;62.18;101507.70;1717129;83;21291;-54
2021/01/12 01:22:59;;;;;;;21.73;13.13;;;;;;;3.08;62.15;101500.84;1717338;83;21702;-55
2021/01/12 01:26:06;;;;;;;26.65;14.98;;;;;;;3.09;62.09;101508.00;1716822;83;21381;-55
2021/01/12 01:29:13;;;;;;;23.87;14.47;;;;;;;3.08;62.31;101505.40;1686748;84;21601;-54
2021/01/12 01:32:18;;;;;;;22.50;14.18;;;;;;;3.05;62.59;101507.80;1712575;83;21204;-55
2021/01/12 01:35:24;;;;;;;25.10;14.70;;;;;;;3.05;62.62;101509.16;1712618;83;21892;-54
2021/01/12 01:38:31;;;;;;;24.50;15.28;;;;;;;2.98;62.56;101508.69;1710322;82;21242;-55
2021/01/12 01:41:36;;;;;;;26.68;15.98;;;;;;;2.93;62.60;101512.17;1700857;84;21199;-55
2021/01/12 01:44:43;;;;;;;30.82;16.90;;;;;;;2.91;62.87;101513.25;1708272;83;21309;-55
2021/01/12 01:47:52;;;;;;;33.10;17.10;;;;;;;2.87;62.74;101511.22;1657190;86;21435;-54
2021/01/12 01:50:58;;;;;;;28.38;15.38;;;;;;;2.86;62.65;101509.50;1708439;83;21210;-54
2021/01/12 01:54:04;;;;;;;24.05;14.20;;;;;;;2.87;62.72;101511.22;1708492;83;21257;-54
2021/01/12 01:57:09;;;;;;;21.82;13.65;;;;;;;2.93;62.87;101510.81;1650405;86;21318;-56
2021/01/12 02:00:16;;;;;;;24.05;15.03;;;;;;;2.93;62.57;101507.27;1708051;84;21219;-55
2021/01/12 02:03:37;;;;;;;25.88;15.10;;;;;;;2.91;62.60;101510.55;1708242;83;21316;-55
2021/01/12 02:06:44;;;;;;;25.08;13.90;;;;;;;2.89;62.65;101509.30;1650801;86;21243;-55
2021/01/12 02:09:59;;;;;;;24.52;14.85;;;;;;;2.86;62.79;101512.67;1716460;82;21236;-55
2021/01/12 02:13:08;;;;;;;21.27;13.83;;;;;;;2.91;62.94;101517.31;1718509;83;21388;-55
2021/01/12 02:16:13;;;;;;;28.12;16.77;;;;;;;2.95;62.96;101509.36;1718515;83;21387;-54
2021/01/12 02:19:23;;;;;;;30.10;18.30;;;;;;;2.99;62.92;101500.09;1718532;83;21411;-55
2021/01/12 02:22:31;;;;;;;30.50;18.73;;;;;;;3.01;63.01;101497.66;1718489;83;21359;-55
2021/01/12 02:25:38;;;;;;;33.02;20.15;;;;;;;3.01;63.08;101495.47;1718369;83;21229;-55
2021/01/12 02:28:42;;;;;;;34.65;20.92;;;;;;;2.94;63.21;101493.64;1721150;83;21403;-54
2021/01/12 02:31:47;;;;;;;30.45;19.35;;;;;;;2.89;63.30;101492.19;1718460;83;21855;-55
2021/01/12 02:34:54;;;;;;;25.77;18.07;;;;;;;2.86;63.58;101495.09;1718914;83;21245;-55
2021/01/12 02:37:59;;;;;;;28.25;18.32;;;;;;;2.87;63.72;101499.56;1718381;83;21245;-54
2021/01/12 02:41:23;;;;;;;23.90;14.60;;;;;;;2.82;63.78;101507.95;1718600;81;21367;-55
2021/01/12 02:44:32;;;;;;;22.58;14.30;;;;;;;2.77;63.93;101507.40;1718757;83;21379;-55
2021/01/12 02:47:38;;;;;;;22.67;14.03;;;;;;;2.81;63.95;101511.63;1718232;83;21842;-55
2021/01/12 02:50:44;;;;;;;27.48;16.10;;;;;;;2.82;63.76;101514.70;1718370;83;21395;-55
2021/01/12 02:53:49;;;;;;;21.60;13.40;;;;;;;2.80;63.93;101513.08;1718192;83;21383;-54
2021/01/12 02:56:55;;;;;;;22.98;13.35;;;;;;;2.78;63.81;101506.89;1718602;83;21435;-54
2021/01/12 03:00:01;;;;;;;23.27;13.93;;;;;;;2.79;63.88;101503.24;1718306;83;21225;-55
2021/01/12 03:03:07;;;;;;;18.95;12.10;;;;;;;2.83;64.21;101511.53;1718629;83;21391;-56
2021/01/12 03:06:14;;;;;;;17.85;10.68;;;;;;;2.88;64.14;101516.16;1718473;83;21226;-56
2021/01/12 03:09:19;;;;;;;18.17;10.38;;;;;;;2.91;63.91;101513.25;1712926;82;21368;-54
2021/01/12 03:12:24;;;;;;;14.25;10.28;;;;;;;2.93;63.85;101515.38;1650284;87;21293;-54
2021/01/12 03:15:29;;;;;;;14.93;10.05;;;;;;;2.92;63.69;101517.20;1718328;83;21360;-55
2021/01/12 03:18:34;;;;;;;13.70;10.00;;;;;;;2.92;63.55;101514.97;1704040;83;21257;-55
2021/01/12 03:21:40;;;;;;;13.10;9.80;;;;;;;2.94;63.45;101520.69;1650617;87;21361;-55
2021/01/12 03:24:45;;;;;;;13.03;9.43;;;;;;;2.94;63.38;101515.75;1718132;83;21924;-55
2021/01/12 03:27:51;;;;;;;17.52;9.75;;;;;;;2.93;63.42;101510.81;1703757;84;21404;-55
2021/01/12 03:30:57;;;;;;;13.88;9.40;;;;;;;2.93;63.23;101505.91;1646481;87;21373;-55
2021/01/12 03:34:03;;;;;;;17.12;11.30;;;;;;;2.87;63.14;101497.70;1673677;85;21295;-55
2021/01/12 03:37:09;;;;;;;15.32;10.70;;;;;;;2.82;63.17;101489.52;1673595;86;21300;-55
2021/01/12 03:40:16;;;;;;;24.45;12.33;;;;;;;2.80;63.14;101478.81;1681149;85;21332;-52
2021/01/12 03:43:21;;;;;;;16.05;10.00;;;;;;;2.82;63.17;101477.36;1712785;83;21328;-53
2021/01/12 03:46:28;;;;;;;19.57;10.75;;;;;;;2.81;62.91;101475.60;1682598;85;21212;-53
2021/01/12 03:49:34;;;;;;;14.58;9.53;;;;;;;2.73;62.47;101469.34;1712504;83;21331;-53
2021/01/12 03:52:40;;;;;;;17.45;10.55;;;;;;;2.71;62.63;101469.08;1658460;86;21264;-54
2021/01/12 03:55:45;;;;;;;17.95;11.60;;;;;;;2.68;62.55;101472.83;1682377;85;21338;-53
2021/01/12 03:58:52;;;;;;;21.07;11.97;;;;;;;2.68;63.06;101464.72;1712599;83;21757;-53
2021/01/12 04:01:57;;;;;;;20.70;13.70;;;;;;;2.73;63.26;101464.41;1682170;85;21351;-53
2021/01/12 04:05:03;;;;;;;19.62;13.43;;;;;;;2.70;63.65;101463.27;1712897;83;21251;-53
2021/01/12 04:08:09;;;;;;;19.95;13.25;;;;;;;2.74;63.93;101456.70;1712363;83;21240;-53
2021/01/12 04:11:15;;;;;;;21.40;13.20;;;;;;;2.74;63.74;101457.55;1715284;82;21485;-52
2021/01/12 04:14:21;;;;;;;21.57;12.80;;;;;;;2.72;63.76;101454.11;1722829;82;21235;-53
2021/01/12 04:17:27;;;;;;;20.75;12.80;;;;;;;2.73;63.83;101450.90;1723200;83;21342;-53
2021/01/12 04:20:33;;;;;;;17.80;12.00;;;;;;;2.77;63.61;101451.98;1723184;83;21359;-53
2021/01/12 04:23:38;;;;;;;19.55;12.43;;;;;;;2.82;63.28;101447.11;1723273;83;21389;-53
2021/01/12 04:26:43;;;;;;;16.95;10.95;;;;;;;2.85;62.85;101443.35;1723167;83;21362;-53
2021/01/12 04:29:48;;;;;;;18.85;12.05;;;;;;;2.87;62.60;101442.27;1723013;83;21729;-53
2021/01/12 04:32:53;;;;;;;19.98;11.70;;;;;;;2.87;61.98;101449.03;1722737;83;21365;-53
2021/01/12 04:36:00;;;;;;;17.52;11.53;;;;;;;2.86;61.69;101439.67;1723131;83;21338;-53
2021/01/12 04:39:05;;;;;;;17.42;11.48;;;;;;;2.84;61.06;101433.48;1722742;83;21903;-54
2021/01/12 04:42:10;;;;;;;21.02;12.50;;;;;;;2.77;60.44;101434.88;1722640;83;21236;-53
2021/01/12 04:45:18;;;;;;;18.57;12.40;;;;;;;2.69;60.53;101433.16;1723002;83;21362;-53
2021/01/12 04:48:24;;;;;;;20.02;12.78;;;;;;;2.65;60.54;101431.61;1723223;83;21409;-53
2021/01/12 04:51:32;;;;;;;21.02;13.35;;;;;;;2.66;60.72;101430.66;1744016;82;21410;-54
2021/01/12 04:54:41;;;;;;;16.10;10.93;;;;;;;2.70;60.90;101433.05;1730765;82;21222;-54
2021/01/12 04:57:46;;;;;;;24.20;13.35;;;;;;;2.74;60.89;101437.78;1726552;83;21245;-53
2021/01/12 05:00:51;;;;;;;22.00;13.43;;;;;;;2.72;60.57;101429.78;1726567;83;21324;-53
2021/01/12 05:04:01;;;;;;;31.90;16.57;;;;;;;2.73;60.79;101430.15;1726493;83;21217;-53
2021/01/12 05:07:06;;;;;;;18.25;11.70;;;;;;;2.76;60.99;101443.46;1726573;83;21204;-53
2021/01/12 05:10:17;;;;;;;17.35;11.25;;;;;;;2.78;60.65;101455.53;1726566;83;21739;-54
2021/01/12 05:13:22;;;;;;;14.87;9.90;;;;;;;2.74;60.14;101454.85;1726523;83;21284;-54
2021/01/12 05:16:30;;;;;;;15.45;10.23;;;;;;;2.74;59.98;101458.06;1726540;83;21209;-53
2021/01/12 05:19:38;;;;;;;15.35;9.53;;;;;;;2.76;60.17;101462.86;1730927;82;21300;-54
2021/01/12 05:22:47;;;;;;;18.50;10.63;;;;;;;2.79;60.47;101470.80;1726534;83;21579;-53
2021/01/12 05:25:52;;;;;;;16.25;9.23;;;;;;;2.82;60.51;101474.66;1726776;83;21241;-52
2021/01/12 05:28:58;;;;;;;16.00;10.63;;;;;;;2.82;60.63;101481.41;1726544;83;21601;-53
2021/01/12 05:32:03;;;;;;;36.23;24.77;;;;;;;2.85;60.55;101486.11;1713181;82;21209;-54
2021/01/12 05:35:11;;;;;;;27.05;17.80;;;;;;;2.82;60.32;101492.23;1726460;83;21257;-53
2021/01/12 05:38:17;;;;;;;27.52;18.57;;;;;;;2.81;60.29;101488.64;1726544;83;21245;-53
2021/01/12 05:41:23;;;;;;;26.35;17.32;;;;;;;2.80;60.51;101489.62;1716929;83;21231;-53
2021/01/12 05:44:31;;;;;;;24.77;15.35;;;;;;;2.80;60.75;101490.98;1697601;84;21261;-54
2021/01/12 05:47:39;;;;;;;24.07;15.10;;;;;;;2.79;60.86;101495.98;1697625;84;21229;-53
2021/01/12 05:50:45;;;;;;;21.37;14.10;;;;;;;2.78;61.10;101494.73;1696765;84;21381;-53
2021/01/12 05:54:12;;;;;;;18.95;12.90;;;;;;;2.76;61.31;101495.30;1697537;84;21261;-53
2021/01/12 05:57:18;;;;;;;22.80;13.55;;;;;;;2.77;61.11;101492.53;1721152;83;21244;-53
2021/01/12 06:00:24;;;;;;;39.67;20.40;;;;;;;2.79;60.66;101489.22;1725539;83;21220;-53
2021/01/12 06:03:30;;;;;;;40.50;19.70;;;;;;;2.81;60.44;101481.88;1696414;84;21236;-53
2021/01/12 06:06:35;;;;;;;33.00;15.83;;;;;;;2.83;59.63;101485.37;1697083;83;21792;-54
2021/01/12 06:09:41;;;;;;;32.15;17.60;;;;;;;2.81;58.85;101485.06;1683217;84;21296;-53
2021/01/12 06:12:49;;;;;;;77.03;42.62;;;;;;;2.82;58.85;101490.87;1698220;83;21596;-53
2021/01/12 06:15:55;;;;;;;63.90;39.92;;;;;;;2.85;59.68;101499.62;1702716;84;21251;-54
2021/01/12 06:19:14;;;;;;;44.10;25.80;;;;;;;2.89;60.17;101495.78;1706225;83;21246;-53
2021/01/12 06:22:29;;;;;;;40.23;24.20;;;;;;;2.93;60.41;101495.94;1731200;82;21239;-54
2021/01/12 06:25:35;;;;;;;45.38;25.27;;;;;;;2.94;60.42;101496.34;1735348;82;21717;-52
2021/01/12 06:28:40;;;;;;;41.60;21.62;;;;;;;2.95;60.41;101485.91;1735769;82;21331;-55
2021/01/12 06:31:54;;;;;;;22.40;12.88;;;;;;;2.95;60.39;101486.38;1735773;82;21205;-53
2021/01/12 06:35:04;;;;;;;45.33;23.90;;;;;;;2.96;59.02;101488.13;1735464;82;21742;-53
2021/01/12 06:38:09;;;;;;;58.73;29.40;;;;;;;2.97;58.08;101492.56;1736136;82;21240;-53
2021/01/12 06:41:15;;;;;;;58.40;29.85;;;;;;;3.01;57.72;101488.70;1728051;82;21287;-53
2021/01/12 06:44:33;;;;;;;63.58;35.25;;;;;;;3.05;57.13;101479.41;1714914;82;21233;-54
2021/01/12 06:47:39;;;;;;;47.58;26.10;;;;;;;3.01;56.47;101476.03;1706809;84;21884;-51
2021/01/12 06:50:45;;;;;;;52.33;30.00;;;;;;;2.96;56.16;101482.72;1706223;84;21351;-54
2021/01/12 06:53:54;;;;;;;42.10;23.57;;;;;;;2.91;56.49;101485.73;1706613;84;21382;-52
2021/01/12 06:57:12;;;;;;;94.85;48.70;;;;;;;2.83;56.49;101482.66;1707351;84;21754;-53
2021/01/12 07:00:18;;;;;;;85.55;52.17;;;;;;;2.85;56.87;101476.64;1735176;82;21291;-53
2021/01/12 07:03:25;;;;;;;58.65;31.48;;;;;;;2.92;57.48;101475.77;1736529;82;21299;-54
2021/01/12 07:06:33;;;;;;;56.70;30.20;;;;;;;2.99;57.94;101482.52;1722225;82;21466;-54
2021/01/12 07:09:38;;;;;;;43.33;24.10;;;;;;;3.01;57.53;101480.59;1716056;82;21378;-53
2021/01/12 07:12:44;;;;;;;39.85;22.45;;;;;;;3.01;57.33;101487.35;1706213;84;21343;-53
2021/01/12 07:15:56;;;;;;;35.25;18.57;;;;;;;3.02;57.29;101480.96;1706464;84;21204;-53
2021/01/12 07:19:08;;;;;;;33.30;18.50;;;;;;;3.07;56.91;101482.88;1736347;82;21245;-54
2021/01/12 07:22:20;;;;;;;30.80;18.35;;;;;;;3.09;56.34;101475.55;1731278;82;21236;-53
2021/01/12 07:25:31;;;;;;;22.80;13.28;;;;;;;3.13;56.26;101482.95;1727581;82;21797;-53
2021/01/12 07:28:36;;;;;;;28.75;18.20;;;;;;;3.19;55.95;101482.05;1716080;82;21220;-55
2021/01/12 07:31:41;;;;;;;26.20;15.93;;;;;;;3.26;55.40;101476.63;1720732;82;21208;-54
2021/01/12 07:34:47;;;;;;;22.32;13.88;;;;;;;3.32;55.41;101477.56;1719492;82;21343;-55
2021/01/12 07:37:52;;;;;;;22.67;12.23;;;;;;;3.36;55.50;101479.11;1722875;82;21208;-53
2021/01/12 07:40:57;;;;;;;15.35;10.88;;;;;;;3.37;55.70;101479.95;1718289;82;21547;-53
2021/01/12 07:44:03;;;;;;;14.43;10.25;;;;;;;3.35;55.97;101476.48;1717474;82;21605;-54
2021/01/12 07:47:12;;;;;;;13.58;9.50;;;;;;;3.29;55.92;101467.42;1719822;82;21181;-54
2021/01/12 07:50:18;;;;;;;20.62;11.45;;;;;;;3.31;55.74;101469.55;1739162;82;21196;-54
2021/01/12 07:53:23;;;;;;;18.70;11.22;;;;;;;3.25;56.01;101481.64;1730479;81;21193;-53
2021/01/12 07:56:29;;;;;;;19.50;12.23;;;;;;;3.29;56.34;101483.19;1740456;82;21721;-52
2021/01/12 07:59:36;;;;;;;18.57;12.88;;;;;;;3.32;56.41;101483.45;1740531;82;21228;-54
2021/01/12 08:02:40;;;;;;;22.37;13.70;;;;;;;3.37;56.67;101469.13;1741063;82;21241;-54
2021/01/12 08:05:47;;;;;;;23.73;13.25;;;;;;;3.44;56.94;101474.53;1730301;82;21204;-54
2021/01/12 08:09:05;;;;;;;23.20;13.35;;;;;;;3.44;56.79;101476.72;1724099;82;21204;-53
2021/01/12 08:12:12;;;;;;;19.37;10.88;;;;;;;3.47;56.86;101467.08;1710428;84;21196;-53
2021/01/12 08:15:22;;;;;;;15.63;9.85;;;;;;;3.51;56.81;101459.11;1694961;84;21191;-52
2021/01/12 08:18:31;;;;;;;13.72;9.15;;;;;;;3.54;56.82;101464.78;1665850;85;21201;-55
2021/01/12 08:21:38;;;;;;;14.40;9.33;;;;;;;3.52;56.71;101460.83;1690633;84;21191;-54
2021/01/12 08:24:42;;;;;;;13.25;8.25;;;;;;;3.51;56.71;101463.17;1668836;85;21256;-54
2021/01/12 08:28:04;;;;;;;11.75;7.70;;;;;;;3.48;56.53;101463.38;1723378;82;21306;-54
2021/01/12 08:31:09;;;;;;;9.25;6.25;;;;;;;3.43;56.65;101471.41;1726965;82;21196;-54
2021/01/12 08:34:14;;;;;;;11.80;7.20;;;;;;;3.35;56.35;101479.19;1720143;82;21329;-53
2021/01/12 08:37:20;;;;;;;10.58;7.08;;;;;;;3.27;56.10;101475.65;1729347;82;21251;-54
2021/01/12 08:40:25;;;;;;;8.58;5.92;;;;;;;3.23;56.15;101455.20;1723368;82;21761;-53
2021/01/12 08:43:36;;;;;;;8.60;6.12;;;;;;;3.24;56.40;101437.10;1729932;82;21271;-53
2021/01/12 08:46:42;;;;;;;9.63;6.58;;;;;;;3.26;56.26;101425.70;1719868;82;21259;-53
2021/01/12 08:49:47;;;;;;;11.63;7.72;;;;;;;3.26;56.33;101415.75;1707256;82;21229;-54
2021/01/12 08:52:55;;;;;;;9.90;6.70;;;;;;;3.32;56.55;101403.63;1737354;82;21781;-53
2021/01/12 08:56:15;;;;;;;9.68;6.08;;;;;;;3.37;56.80;101403.70;1700570;83;21240;-54
2021/01/12 08:59:20;;;;;;;11.43;6.40;;;;;;;3.39;56.67;101403.13;1710001;83;21205;-54
2021/01/12 09:02:30;;;;;;;9.73;6.22;;;;;;;3.36;56.66;101396.58;1691010;84;21263;-53
2021/01/12 09:05:40;;;;;;;11.08;5.95;;;;;;;3.36;56.70;101384.40;1660065;85;21517;-54
2021/01/12 09:08:47;;;;;;;8.78;6.00;;;;;;;3.38;56.72;101366.19;1641569;85;21654;-54
2021/01/12 09:11:59;;;;;;;10.60;5.67;;;;;;;3.38;56.22;101366.70;1684293;84;21308;-53
2021/01/12 09:15:02;;;;;;;9.88;7.12;;;;;;;3.38;55.70;101355.37;1689660;84;21263;-52
2021/01/12 09:18:26;;;;;;;8.35;6.03;;;;;;;3.31;55.00;101345.08;1679124;84;21259;-53
2021/01/12 09:21:31;;;;;;;18.00;9.68;;;;;;;3.28;54.68;101352.06;1688107;84;21609;-53
2021/01/12 09:24:36;;;;;;;11.83;6.70;;;;;;;3.22;53.83;101354.69;1680025;84;21224;-54
2021/01/12 09:27:41;;;;;;;8.40;6.15;;;;;;;3.11;53.63;101350.50;1694393;84;21192;-53
2021/01/12 09:30:47;;;;;;;11.63;6.67;;;;;;;3.02;53.93;101355.20;1697444;84;21188;-53
2021/01/12 09:34:02;;;;;;;11.03;6.45;;;;;;;3.07;53.94;101363.88;1693287;84;21224;-53
2021/01/12 09:37:07;;;;;;;9.18;6.55;;;;;;;3.06;53.97;101367.53;1686481;84;21200;-53
2021/01/12 09:40:13;;;;;;;8.55;6.05;;;;;;;3.06;53.78;101377.88;1676634;84;21239;-53
2021/01/12 09:43:18;;;;;;;8.78;6.80;;;;;;;2.91;53.33;101359.12;1678983;84;21259;-54
2021/01/12 09:46:23;;;;;;;13.05;9.45;;;;;;;2.84;53.52;101353.72;1696378;84;21551;-53
2021/01/12 09:49:28;;;;;;;9.78;7.30;;;;;;;2.81;53.11;101348.05;1671881;85;21205;-54
2021/01/12 09:52:33;;;;;;;10.45;6.85;;;;;;;2.79;53.23;101354.03;1703648;84;21191;-53
2021/01/12 09:55:38;;;;;;;8.60;5.45;;;;;;;2.81;53.28;101349.41;1705060;81;21212;-52
2021/01/12 09:58:45;;;;;;;12.58;6.83;;;;;;;2.85;53.31;101333.84;1701904;84;21742;-53
2021/01/12 10:01:50;;;;;;;9.95;6.85;;;;;;;2.90;53.19;101326.30;1699639;84;21267;-52
2021/01/12 10:04:57;;;;;;;11.65;6.62;;;;;;;2.88;52.96;101318.77;1701260;84;21219;-54
2021/01/12 10:08:02;;;;;;;6.70;5.37;;;;;;;2.91;52.89;101331.59;1701038;84;21701;-53
2021/01/12 10:11:09;;;;;;;7.72;5.35;;;;;;;2.94;52.48;101330.51;1701846;84;21327;-55
2021/01/12 10:14:14;;;;;;;9.25;5.85;;;;;;;2.94;52.34;101326.45;1701414;84;21240;-54
2021/01/12 10:17:19;;;;;;;10.55;6.80;;;;;;;2.89;52.08;101344.34;1701486;84;21986;-54
2021/01/12 10:20:23;;;;;;;11.53;7.22;;;;;;;2.88;52.21;101348.03;1702087;84;21244;-55
2021/01/12 10:23:28;;;;;;;11.00;5.87;;;;;;;2.83;51.65;101343.89;1702277;84;21227;-52
2021/01/12 10:26:34;;;;;;;9.08;5.25;;;;;;;2.78;51.30;101355.50;1701683;84;21737;-53
2021/01/12 10:29:40;;;;;;;8.13;5.20;;;;;;;2.65;50.70;101336.53;1700879;84;21223;-53
2021/01/12 10:32:45;;;;;;;9.95;4.97;;;;;;;2.61;50.71;101326.03;1681528;84;21204;-53
2021/01/12 10:35:51;;;;;;;16.07;6.45;;;;;;;2.67;51.00;101328.31;1692244;84;21581;-53
2021/01/12 10:38:56;;;;;;;8.45;5.45;;;;;;;2.78;50.98;101333.87;1689720;84;21279;-53
2021/01/12 10:42:03;;;;;;;8.85;5.12;;;;;;;2.79;50.41;101324.80;1701442;84;21255;-53
2021/01/12 10:45:09;;;;;;;13.10;6.97;;;;;;;2.75;50.33;101318.73;1701637;84;21353;-53
2021/01/12 10:48:17;;;;;;;12.43;6.03;;;;;;;2.75;50.41;101316.50;1702152;84;21288;-52
2021/01/12 10:51:26;;;;;;;9.88;5.55;;;;;;;2.80;50.50;101317.06;1702111;84;21773;-53
2021/01/12 10:54:32;;;;;;;7.00;4.95;;;;;;;2.87;50.62;101290.84;1702384;84;21358;-53
2021/01/12 10:57:37;;;;;;;7.40;4.65;;;;;;;2.97;50.70;101262.69;1703997;82;21441;-52
2021/01/12 11:00:47;;;;;;;7.85;4.95;;;;;;;3.00;50.68;101244.89;1702854;84;21394;-52
2021/01/12 11:03:52;;;;;;;6.95;5.05;;;;;;;3.02;50.70;101242.96;1691956;84;21247;-52
2021/01/12 11:06:59;;;;;;;8.35;4.75;;;;;;;3.08;50.66;101257.40;1685419;84;21212;-52
2021/01/12 11:10:06;;;;;;;7.35;5.20;;;;;;;3.15;50.58;101219.49;1702586;84;21196;-51
2021/01/12 11:13:13;;;;;;;7.80;4.90;;;;;;;3.19;50.57;101221.50;1679689;84;21284;-52
2021/01/12 11:16:18;;;;;;;6.70;5.20;;;;;;;3.26;50.10;101237.19;1680449;84;21252;-52
2021/01/12 11:19:24;;;;;;;11.63;7.58;;;;;;;3.20;49.79;101230.86;1685224;84;21286;-54
2021/01/12 11:22:30;;;;;;;15.60;9.43;;;;;;;3.16;50.08;101228.45;1685956;84;21199;-56
2021/01/12 11:25:37;;;;;;;16.10;9.68;;;;;;;3.17;50.33;101231.08;1687916;84;21773;-53
2021/01/12 11:28:42;;;;;;;14.33;8.98;;;;;;;3.19;50.60;101230.45;1686340;84;21828;-57
2021/01/12 11:31:49;;;;;;;8.63;6.17;;;;;;;3.27;50.68;101238.06;1691685;84;21240;-57
2021/01/12 11:34:56;;;;;;;9.60;6.65;;;;;;;3.25;50.59;101257.08;1683259;84;21208;-54
2021/01/12 11:38:02;;;;;;;9.25;6.62;;;;;;;3.23;50.67;101222.52;1685424;84;21256;-55
2021/01/12 11:41:09;;;;;;;9.13;6.40;;;;;;;3.21;50.62;101217.70;1683545;84;21177;-55
2021/01/12 11:44:15;;;;;;;9.48;5.50;;;;;;;3.25;50.79;101224.61;1684668;84;21228;-55
2021/01/12 11:47:21;;;;;;;7.08;5.65;;;;;;;3.23;50.78;101222.52;1689444;84;21195;-55
2021/01/12 11:50:27;;;;;;;7.92;5.58;;;;;;;3.22;50.38;101216.71;1687958;84;22106;-57
2021/01/12 11:53:32;;;;;;;7.20;5.20;;;;;;;3.13;50.19;101209.27;1699369;84;21221;-57
2021/01/12 11:56:36;;;;;;;6.97;5.47;;;;;;;3.11;50.62;101206.30;1693934;84;21225;-57
2021/01/12 11:59:43;;;;;;;13.05;5.08;;;;;;;3.19;50.75;101192.59;1724948;83;21267;-56
2021/01/12 12:02:49;;;;;;;6.90;5.45;;;;;;;3.26;50.81;101188.48;1677307;84;21290;-55
2021/01/12 12:05:55;;;;;;;9.83;5.70;;;;;;;3.34;51.01;101159.03;1721301;83;21244;-55
2021/01/12 12:09:00;;;;;;;13.22;8.05;;;;;;;3.47;50.77;101161.71;1712964;83;21717;-56
2021/01/12 12:12:07;;;;;;;15.83;10.10;;;;;;;3.50;50.48;101170.48;1723998;83;21215;-57
2021/01/12 12:15:14;;;;;;;12.50;8.25;;;;;;;3.49;50.23;101167.38;1701251;84;21186;-55
2021/01/12 12:18:20;;;;;;;13.53;6.90;;;;;;;3.55;50.59;101174.20;1715826;83;21182;-56
2021/01/12 12:21:26;;;;;;;13.40;7.20;;;;;;;3.57;50.48;101174.96;1713488;83;21171;-56
2021/01/12 12:24:33;;;;;;;22.45;11.45;;;;;;;3.49;49.93;101186.83;1730612;83;21799;-56
2021/01/12 12:27:38;;;;;;;32.03;13.22;;;;;;;3.44;50.13;101198.47;1730595;83;21216;-56
2021/01/12 12:30:43;;;;;;;16.85;9.43;;;;;;;3.45;50.34;101190.24;1729736;83;21215;-57
2021/01/12 12:33:52;;;;;;;14.10;7.30;;;;;;;3.38;50.26;101191.65;1730827;83;21728;-55
2021/01/12 12:36:58;;;;;;;20.12;8.38;;;;;;;3.27;50.51;101182.59;1729685;83;21248;-55
2021/01/12 12:40:07;;;;;;;9.38;5.35;;;;;;;3.21;50.80;101172.19;1730086;83;21244;-55
2021/01/12 12:43:13;;;;;;;7.87;5.28;;;;;;;3.17;50.89;101170.22;1730468;83;21204;-55
2021/01/12 12:46:19;;;;;;;8.28;5.20;;;;;;;3.13;50.89;101159.22;1730511;83;21717;-56
2021/01/12 12:49:25;;;;;;;37.42;14.07;;;;;;;3.16;51.20;101173.88;1726779;83;21346;-56
2021/01/12 12:52:35;;;;;;;12.85;6.62;;;;;;;3.19;51.03;101176.86;1714886;83;21239;-56
2021/01/12 12:55:40;;;;;;;7.65;5.47;;;;;;;3.13;51.03;101174.09;1701184;84;21210;-56
2021/01/12 12:58:47;;;;;;;8.83;4.97;;;;;;;3.06;51.26;101161.49;1709686;81;21210;-55
2021/01/12 13:02:00;;;;;;;9.60;5.65;;;;;;;3.02;51.56;101157.77;1725356;82;21792;-56
2021/01/12 13:05:06;;;;;;;8.30;5.72;;;;;;;3.02;51.57;101165.88;1740389;82;21757;-55
2021/01/12 13:08:10;;;;;;;6.97;5.05;;;;;;;3.05;51.73;101165.66;1721133;82;21235;-56
2021/01/12 13:11:15;;;;;;;10.53;7.62;;;;;;;3.05;52.02;101176.48;1719632;82;21263;-56
2021/01/12 13:14:22;;;;;;;10.28;6.65;;;;;;;3.11;52.15;101148.14;1719037;82;21184;-57
2021/01/12 13:17:27;;;;;;;13.83;6.78;;;;;;;3.17;52.61;101163.45;1732393;82;21207;-55
2021/01/12 13:20:36;;;;;;;7.85;5.90;;;;;;;3.22;52.30;101154.49;1735252;82;21299;-56
2021/01/12 13:23:43;;;;;;;10.58;6.00;;;;;;;3.26;52.14;101150.61;1720920;82;21334;-56
2021/01/12 13:26:52;;;;;;;8.20;5.80;;;;;;;3.32;51.98;101150.16;1719948;82;21260;-56
2021/01/12 13:30:03;;;;;;;7.50;5.25;;;;;;;3.28;51.78;101145.96;1717400;82;21267;-56
2021/01/12 13:33:10;;;;;;;7.97;5.70;;;;;;;3.25;51.90;101151.56;1727359;82;21204;-55
2021/01/12 13:36:18;;;;;;;7.50;5.15;;;;;;;3.28;51.98;101119.38;1720825;82;21256;-59
2021/01/12 13:39:28;;;;;;;8.28;5.90;;;;;;;3.32;51.99;101101.45;1717654;82;21856;-59
2021/01/12 13:42:38;;;;;;;10.23;6.72;;;;;;;3.35;51.96;101085.47;1680025;84;21238;-57
2021/01/12 13:45:45;;;;;;;10.05;5.55;;;;;;;3.38;51.77;101078.00;1675349;84;21228;-57
2021/01/12 13:48:53;;;;;;;10.40;6.45;;;;;;;3.38;51.60;101093.39;1689896;83;21334;-57
2021/01/12 13:52:05;;;;;;;25.27;12.30;;;;;;;3.36;51.63;101073.20;1700114;83;21385;-56
2021/01/12 13:55:14;;;;;;;26.60;16.77;;;;;;;3.33;51.75;101060.39;1707830;83;21350;-56
2021/01/12 13:58:22;;;;;;;30.02;15.72;;;;;;;3.23;52.03;101056.14;1707683;83;21239;-56
2021/01/12 14:01:29;;;;;;;17.10;10.88;;;;;;;3.22;52.29;101059.80;1704995;82;21792;-57
2021/01/12 14:04:38;;;;;;;17.12;10.35;;;;;;;3.17;51.98;101097.18;1701452;84;21220;-57
2021/01/12 14:07:52;;;;;;;16.65;10.85;;;;;;;3.08;52.45;101119.45;1698066;82;21260;-56
2021/01/12 14:10:59;;;;;;;13.18;7.55;;;;;;;3.05;52.68;101127.80;1694377;84;21263;-56
2021/01/12 14:14:07;;;;;;;10.38;6.60;;;;;;;3.08;52.97;101117.27;1697490;84;21211;-55
2021/01/12 14:17:14;;;;;;;18.62;10.88;;;;;;;3.13;53.12;101105.59;1691473;84;21208;-57
2021/01/12 14:20:21;;;;;;;17.87;10.18;;;;;;;3.16;53.09;101099.48;1689641;84;21254;-55
2021/01/12 14:23:26;;;;;;;16.75;8.08;;;;;;;3.19;53.06;101091.14;1692506;84;21938;-56
2021/01/12 14:26:33;;;;;;;13.75;6.42;;;;;;;3.21;53.23;101076.16;1693806;84;21228;-55